Terminal Aerodrome Forecast
Issued by NWS

Home | Current Version | Previous Version | Text Only | Print | Product List | Glossary On
Versions: 1 2 3 4 5 6 7 8 9 10 11 12 13 14
000
FTUS42 TJSJ 051100
TAFISX
TAF
TISX 051132Z 0512/0612 10012KT P6SM VCSH SCT030 SCT045 BKN070
     FM051430 09015G25KT P6SM FEW030
     FM052330 07012G22KT P6SM SCT030
      AMD NOT SKED=

USA.gov is the U.S. government's official web portal to all federal, state and local government web resources and services.